Arkadiy Minchenya — UBUU — position and weather

sailwx.info

Track history (hours):
 
Tides and Currents Weather Stations Pressure Air Temp Water Temp Dewpoint Dewpoint Depression Visibility Wind Speed Wind Dir Waves Ship Positions

Arkadiy Minchenya

Last reported at 2017-Oct-28 17:23 UTC. Time now 2017-Nov-24 16:42 UTC.
Position N 59°50' E 030°32'.
Warning: this ship's position is 26 days out of date.

Length 52 m; draft 3.6 m.

Type: Cargo ship. MMSI: 273428020.

Date/timePositionNaut miles runAvg speedWind from/ knotsBaromVisibWave heightAir tempDewpointWater temp
2017-Oct-28 17:23N 59°50' E 030°32'2 4.3
2017-Oct-28 16:59N 59°51' E 030°30'1 0.1
2017-Oct-28 06:00N 59°52' E 030°29'0 0.0
2017-Oct-27 22:15N 59°52' E 030°29'0 0.2
2017-Oct-27 21:52N 59°52' E 030°29'2 5.0
2017-Oct-27 21:30N 59°51' E 030°31'  
2017-Oct-25 02:44N 59°50' E 030°31'2 0.2
2017-Oct-24 17:36N 59°52' E 030°29'0 1.0
2017-Oct-24 17:28N 59°52' E 030°29'4 6.0
2017-Oct-24 16:49N 59°49' E 030°34'1 0.0
2017-Oct-22 14:36N 59°50' E 030°32'1 5.4
2017-Oct-22 14:28N 59°50' E 030°31'1 2.4
2017-Oct-22 13:55N 59°52' E 030°29'1 1.6
2017-Oct-22 13:29N 59°52' E 030°29'0 0.0
2017-Oct-22 12:52N 59°52' E 030°29'0 0.0
2017-Oct-22 12:19N 59°52' E 030°29'0 0.0
2017-Oct-22 11:03N 59°52' E 030°29'0 0.0
2017-Oct-22 10:58N 59°52' E 030°29'0 0.0
2017-Oct-22 04:11N 59°52' E 030°29'1 1.9
2017-Oct-22 03:51N 59°52' E 030°30'  
2017-Oct-19 09:29N 59°50' E 030°32'2 3.5
2017-Oct-19 09:00N 59°51' E 030°30'1 1.7
2017-Oct-19 08:29N 59°52' E 030°29'0 0.0
2017-Oct-19 07:48N 59°52' E 030°29'0 0.0
2017-Oct-19 07:22N 59°52' E 030°29'0 0.0
2017-Oct-19 05:42N 59°52' E 030°29'0 0.0
2017-Oct-19 05:27N 59°52' E 030°29'0 0.0
2017-Oct-19 03:45N 59°52' E 030°29'0 0.0
2017-Oct-19 03:16N 59°52' E 030°29'0 0.0
2017-Oct-19 03:00N 59°52' E 030°29'0 0.0
2017-Oct-19 00:45N 59°52' E 030°29'0 0.0
2017-Oct-19 00:03N 59°52' E 030°29'0 0.0
2017-Oct-18 23:48N 59°52' E 030°29'0 0.0
2017-Oct-18 23:26N 59°52' E 030°29'0 0.0
2017-Oct-18 22:37N 59°52' E 030°29'0 0.0
2017-Oct-18 22:25N 59°52' E 030°29'0 0.0
2017-Oct-18 22:00N 59°52' E 030°29'0 0.0
2017-Oct-18 21:05N 59°52' E 030°29'0 0.0
2017-Oct-18 20:57N 59°52' E 030°29'  
Track history (hours):
 
Tides and Currents Weather Stations Pressure Air Temp Water Temp Dewpoint Dewpoint Depression Visibility Wind Speed Wind Dir Waves Ship Positions

Arkadiy Minchenya

Last reported at 2017-Oct-28 17:23 UTC. Time now 2017-Nov-24 16:42 UTC.
Position N 59°50' E 030°32'.
Warning: this ship's position is 26 days out of date.

Length 52 m; draft 3.6 m.

Type: Cargo ship. MMSI: 273428020.

Date/timePositionNaut miles runAvg speedWind from/ knotsBaromVisibWave heightAir tempDewpointWater temp
2017-Oct-28 17:23N 59°50' E 030°32'2 4.3
2017-Oct-28 16:59N 59°51' E 030°30'1 0.1
2017-Oct-28 06:00N 59°52' E 030°29'0 0.0
2017-Oct-27 22:15N 59°52' E 030°29'0 0.2
2017-Oct-27 21:52N 59°52' E 030°29'2 5.0
2017-Oct-27 21:30N 59°51' E 030°31'  
2017-Oct-25 02:44N 59°50' E 030°31'2 0.2
2017-Oct-24 17:36N 59°52' E 030°29'0 1.0
2017-Oct-24 17:28N 59°52' E 030°29'4 6.0
2017-Oct-24 16:49N 59°49' E 030°34'1 0.0
2017-Oct-22 14:36N 59°50' E 030°32'1 5.4
2017-Oct-22 14:28N 59°50' E 030°31'1 2.4
2017-Oct-22 13:55N 59°52' E 030°29'1 1.6
2017-Oct-22 13:29N 59°52' E 030°29'0 0.0
2017-Oct-22 12:52N 59°52' E 030°29'0 0.0
2017-Oct-22 12:19N 59°52' E 030°29'0 0.0
2017-Oct-22 11:03N 59°52' E 030°29'0 0.0
2017-Oct-22 10:58N 59°52' E 030°29'0 0.0
2017-Oct-22 04:11N 59°52' E 030°29'1 1.9
2017-Oct-22 03:51N 59°52' E 030°30'  
2017-Oct-19 09:29N 59°50' E 030°32'2 3.5
2017-Oct-19 09:00N 59°51' E 030°30'1 1.7
2017-Oct-19 08:29N 59°52' E 030°29'0 0.0
2017-Oct-19 07:48N 59°52' E 030°29'0 0.0
2017-Oct-19 07:22N 59°52' E 030°29'0 0.0
2017-Oct-19 05:42N 59°52' E 030°29'0 0.0
2017-Oct-19 05:27N 59°52' E 030°29'0 0.0
2017-Oct-19 03:45N 59°52' E 030°29'0 0.0
2017-Oct-19 03:16N 59°52' E 030°29'0 0.0
2017-Oct-19 03:00N 59°52' E 030°29'0 0.0
2017-Oct-19 00:45N 59°52' E 030°29'0 0.0
2017-Oct-19 00:03N 59°52' E 030°29'0 0.0
2017-Oct-18 23:48N 59°52' E 030°29'0 0.0
2017-Oct-18 23:26N 59°52' E 030°29'0 0.0
2017-Oct-18 22:37N 59°52' E 030°29'0 0.0
2017-Oct-18 22:25N 59°52' E 030°29'0 0.0
2017-Oct-18 22:00N 59°52' E 030°29'0 0.0
2017-Oct-18 21:05N 59°52' E 030°29'0 0.0
2017-Oct-18 20:57N 59°52' E 030°29'  

Dump ship's entire track history